Time;durP1;ratioP1;P1;durP2;ratioP2;P2;SDS_P1;SDS_P2;PMS_P1;PMS_P2;Temp;Humidity;BMP_temperature;BMP_pressure;BME280_temperature;BME280_humidity;BME280_pressure;Samples;Min_cycle;Max_cycle;Signal;HPM_P1;HPM_P2
2021/08/24 00:01:30;;;;;;;0.57;0.50;;;16.40;77.70;;;;;;4995906;28;20554;-79
2021/08/24 00:03:56;;;;;;;0.43;0.38;;;16.40;77.80;;;;;;4995440;28;20053;-80
2021/08/24 00:06:21;;;;;;;1.05;0.38;;;16.40;77.80;;;;;;5008737;28;20163;-80
2021/08/24 00:08:47;;;;;;;0.80;0.50;;;16.40;77.80;;;;;;4993532;28;20058;-79
2021/08/24 00:11:13;;;;;;;0.43;0.30;;;16.40;77.80;;;;;;4992672;28;20038;-78
2021/08/24 00:13:39;;;;;;;0.65;0.40;;;16.30;77.70;;;;;;4992251;28;20483;-79
2021/08/24 00:16:05;;;;;;;0.32;0.30;;;16.30;77.70;;;;;;4993532;28;20030;-79
2021/08/24 00:18:31;;;;;;;0.52;0.40;;;16.30;77.70;;;;;;4993116;28;20039;-79
2021/08/24 00:20:57;;;;;;;0.47;0.40;;;16.30;77.80;;;;;;5009365;28;20077;-79
2021/08/24 00:23:26;;;;;;;0.95;0.35;;;16.30;77.70;;;;;;4991820;28;20027;-80
2021/08/24 00:25:53;;;;;;;0.80;0.50;;;16.20;77.70;;;;;;4993370;28;20395;-80
2021/08/24 00:28:20;;;;;;;0.63;0.40;;;16.20;77.70;;;;;;4993093;28;20054;-79
2021/08/24 00:30:46;;;;;;;0.45;0.40;;;16.20;77.70;;;;;;4994728;28;20085;-79
2021/08/24 00:33:13;;;;;;;0.35;0.35;;;16.20;77.70;;;;;;4990062;28;20042;-79
2021/08/24 00:35:41;;;;;;;0.30;0.30;;;16.20;77.70;;;;;;4995254;28;20034;-80
2021/08/24 00:38:09;;;;;;;0.40;0.40;;;16.20;77.70;;;;;;4994779;28;20108;-79
2021/08/24 00:40:36;;;;;;;0.85;0.40;;;16.10;77.70;;;;;;4993119;28;20129;-80
2021/08/24 00:43:02;;;;;;;1.05;0.60;;;16.10;77.70;;;;;;4992301;28;20064;-80
2021/08/24 00:45:28;;;;;;;1.10;0.50;;;16.10;77.70;;;;;;4994472;28;20038;-80
2021/08/24 00:47:54;;;;;;;0.43;0.40;;;16.20;77.80;;;;;;4994555;28;20045;-79
2021/08/24 00:50:27;;;;;;;0.85;0.30;;;16.10;77.70;;;;;;4992405;28;20042;-80
2021/08/24 00:53:07;;;;;;;0.50;0.50;;;16.10;77.80;;;;;;4992682;28;20471;-79
2021/08/24 00:55:33;;;;;;;0.47;0.35;;;16.10;77.70;;;;;;5008278;28;20070;-80
2021/08/24 00:58:04;;;;;;;0.38;0.38;;;16.10;77.70;;;;;;4991093;28;20053;-79
2021/08/24 01:00:31;;;;;;;1.02;0.70;;;16.10;77.70;;;;;;4994689;28;20038;-79
2021/08/24 01:03:14;;;;;;;0.90;0.55;;;16.10;77.80;;;;;;5008012;28;20435;-79
2021/08/24 01:05:42;;;;;;;0.90;0.40;;;16.10;77.80;;;;;;4993453;28;20030;-79
2021/08/24 01:08:23;;;;;;;0.60;0.57;;;16.00;77.70;;;;;;5009890;28;20046;-79
2021/08/24 01:11:04;;;;;;;0.98;0.57;;;16.00;77.70;;;;;;4994485;28;20097;-79
2021/08/24 01:13:53;;;;;;;0.73;0.35;;;16.00;77.80;;;;;;4992881;28;20042;-80
2021/08/24 01:16:37;;;;;;;0.20;0.20;;;16.00;77.80;;;;;;4995015;28;20410;-79
2021/08/24 01:19:37;;;;;;;1.77;0.60;;;16.00;77.90;;;;;;4994474;28;20403;-79
2021/08/24 01:22:34;;;;;;;0.75;0.40;;;16.00;77.90;;;;;;5009194;28;20518;-79
2021/08/24 01:25:05;;;;;;;0.65;0.50;;;15.90;77.90;;;;;;4994414;28;20105;-79
2021/08/24 01:27:39;;;;;;;;;;;15.90;77.80;;;;;;4992926;28;20446;-79
2021/08/24 01:30:23;;;;;;;0.38;0.32;;;15.90;77.90;;;;;;4994725;28;19913;-79
2021/08/24 01:33:04;;;;;;;0.47;0.47;;;15.80;78.00;;;;;;4993283;28;20047;-79
2021/08/24 01:35:49;;;;;;;0.35;0.35;;;15.80;78.00;;;;;;4994181;28;20034;-79
2021/08/24 01:38:23;;;;;;;0.80;0.50;;;15.80;78.10;;;;;;5009542;28;20038;-79
2021/08/24 01:41:04;;;;;;;0.70;0.50;;;15.80;78.20;;;;;;4993399;28;20035;-79
2021/08/24 01:43:50;;;;;;;0.50;0.50;;;15.70;78.20;;;;;;4994255;28;20410;-80
2021/08/24 01:46:34;;;;;;;0.30;0.30;;;15.80;78.30;;;;;;4990314;28;20129;-80
2021/08/24 01:49:04;;;;;;;1.05;0.55;;;15.70;78.30;;;;;;4993884;28;20039;-79
2021/08/24 01:51:38;;;;;;;0.30;0.20;;;15.70;78.40;;;;;;4992350;28;20045;-79
2021/08/24 01:54:14;;;;;;;0.63;0.50;;;15.60;78.50;;;;;;4991532;28;20049;-79
2021/08/24 01:56:40;;;;;;;0.50;0.50;;;15.60;78.60;;;;;;4993931;28;20031;-80
2021/08/24 01:59:17;;;;;;;0.43;0.40;;;15.60;78.60;;;;;;5007972;28;20035;-79
2021/08/24 02:01:53;;;;;;;0.40;0.40;;;15.60;78.70;;;;;;4994588;28;20056;-79
2021/08/24 02:04:47;;;;;;;1.05;0.60;;;15.60;78.80;;;;;;4990924;28;20548;-80
2021/08/24 02:07:15;;;;;;;0.90;0.45;;;15.60;79.00;;;;;;5008854;28;20822;-79
2021/08/24 02:09:46;;;;;;;0.65;0.50;;;15.50;78.90;;;;;;4991236;28;20497;-79
2021/08/24 02:12:15;;;;;;;1.40;0.50;;;15.50;79.00;;;;;;5008611;28;20049;-80
2021/08/24 02:14:41;;;;;;;0.43;0.43;;;15.50;79.00;;;;;;5008448;28;20031;-79
2021/08/24 02:17:10;;;;;;;1.10;0.70;;;15.50;79.10;;;;;;4993960;28;20120;-80
2021/08/24 02:19:41;;;;;;;0.38;0.38;;;15.50;79.20;;;;;;4990251;28;20557;-79
2021/08/24 02:22:21;;;;;;;0.47;0.47;;;15.50;79.30;;;;;;4992043;28;20117;-80
2021/08/24 02:24:53;;;;;;;1.67;0.60;;;15.50;79.30;;;;;;4992152;28;20442;-80
2021/08/24 02:27:24;;;;;;;1.23;0.60;;;15.40;79.30;;;;;;5007721;28;20118;-80
2021/08/24 02:29:50;;;;;;;0.60;0.50;;;15.40;79.40;;;;;;4992662;28;20038;-79
2021/08/24 02:32:23;;;;;;;0.68;0.55;;;15.40;79.50;;;;;;4992779;28;20051;-80
2021/08/24 02:35:08;;;;;;;0.65;0.60;;;15.40;79.50;;;;;;4991436;28;20506;-79
2021/08/24 02:37:42;;;;;;;1.33;0.52;;;15.40;79.60;;;;;;5007596;28;20042;-79
2021/08/24 02:40:29;;;;;;;0.60;0.50;;;15.40;79.60;;;;;;4992179;28;20034;-79
2021/08/24 02:43:18;;;;;;;0.30;0.30;;;15.40;79.60;;;;;;4990555;28;20451;-79
2021/08/24 02:46:00;;;;;;;0.63;0.50;;;15.30;79.60;;;;;;4992757;28;20380;-79
2021/08/24 02:48:27;;;;;;;1.05;0.60;;;15.40;79.70;;;;;;4991669;28;20042;-79
2021/08/24 02:50:53;;;;;;;0.95;0.50;;;15.20;79.60;;;;;;4992710;28;20563;-79
2021/08/24 02:53:21;;;;;;;0.60;0.60;;;15.30;79.80;;;;;;5008341;28;20038;-79
2021/08/24 02:55:49;;;;;;;0.60;0.50;;;15.40;79.90;;;;;;4991889;28;20046;-79
2021/08/24 02:58:15;;;;;;;0.77;0.50;;;15.30;79.90;;;;;;5007766;28;20066;-80
2021/08/24 03:00:41;;;;;;;0.50;0.50;;;15.30;79.90;;;;;;4990539;28;20077;-79
2021/08/24 03:03:07;;;;;;;0.82;0.50;;;15.30;80.00;;;;;;4993423;28;20113;-80
2021/08/24 03:05:34;;;;;;;0.50;0.50;;;15.20;80.00;;;;;;4990933;28;20056;-79
2021/08/24 03:08:01;;;;;;;0.88;0.50;;;15.20;80.00;;;;;;5007169;28;20038;-80
2021/08/24 03:10:30;;;;;;;1.20;0.43;;;15.20;80.10;;;;;;4989977;28;20129;-79
2021/08/24 03:13:18;;;;;;;0.82;0.50;;;15.20;80.30;;;;;;4992893;28;20046;-79
2021/08/24 03:15:49;;;;;;;1.80;0.82;;;15.20;80.40;;;;;;5006579;28;20398;-79
2021/08/24 03:18:29;;;;;;;1.63;0.70;;;15.20;80.40;;;;;;5008381;28;20082;-80
2021/08/24 03:21:00;;;;;;;1.27;0.63;;;15.20;80.50;;;;;;4994650;28;20030;-80
2021/08/24 03:23:28;;;;;;;1.45;0.50;;;15.10;80.50;;;;;;5009761;28;20045;-80
2021/08/24 03:25:55;;;;;;;0.52;0.40;;;15.10;80.50;;;;;;4994896;28;20042;-80
2021/08/24 03:28:24;;;;;;;0.68;0.60;;;15.20;80.60;;;;;;4994777;28;20130;-79
2021/08/24 03:30:51;;;;;;;0.52;0.50;;;15.20;80.70;;;;;;4994522;28;20057;-80
2021/08/24 03:33:18;;;;;;;0.32;0.32;;;15.20;80.80;;;;;;4993229;28;20101;-80
2021/08/24 03:35:44;;;;;;;1.05;0.70;;;15.10;80.70;;;;;;4993270;28;20122;-80
2021/08/24 03:38:11;;;;;;;1.02;0.80;;;15.00;80.70;;;;;;5010863;28;20514;-79
2021/08/24 03:40:37;;;;;;;0.90;0.50;;;15.10;80.80;;;;;;4993653;28;20038;-80
2021/08/24 03:43:04;;;;;;;0.57;0.50;;;15.10;80.90;;;;;;5009257;28;20032;-79
2021/08/24 03:45:30;;;;;;;0.88;0.55;;;15.10;81.00;;;;;;4994185;28;20042;-80
2021/08/24 03:47:56;;;;;;;0.52;0.50;;;15.20;81.00;;;;;;4994111;28;20081;-80
2021/08/24 03:50:22;;;;;;;0.95;0.65;;;15.10;81.00;;;;;;4994054;28;20070;-80
2021/08/24 03:52:49;;;;;;;1.13;0.77;;;15.10;81.10;;;;;;5009622;28;20045;-80
2021/08/24 03:55:16;;;;;;;0.90;0.75;;;15.10;81.10;;;;;;4994579;28;20077;-80
2021/08/24 03:57:42;;;;;;;0.60;0.60;;;15.10;81.10;;;;;;4996402;28;20037;-80
2021/08/24 04:00:09;;;;;;;0.98;0.60;;;15.10;81.20;;;;;;4995932;28;20117;-79
2021/08/24 04:02:34;;;;;;;0.90;0.60;;;15.10;81.20;;;;;;4993451;28;20042;-81
2021/08/24 04:05:02;;;;;;;1.52;0.70;;;15.10;81.30;;;;;;4996160;28;20031;-79
2021/08/24 04:07:30;;;;;;;0.77;0.60;;;15.10;81.40;;;;;;4996080;28;20092;-79
2021/08/24 04:09:55;;;;;;;1.27;0.80;;;15.10;81.40;;;;;;4995668;28;20502;-80
2021/08/24 04:12:22;;;;;;;1.30;0.77;;;15.10;81.40;;;;;;4993298;28;20061;-79
2021/08/24 04:14:48;;;;;;;1.10;0.70;;;15.10;81.50;;;;;;4995748;28;20410;-80
2021/08/24 04:17:14;;;;;;;0.85;0.80;;;15.10;81.50;;;;;;4995563;28;20509;-80
2021/08/24 04:19:40;;;;;;;1.23;0.90;;;15.10;81.60;;;;;;4995320;28;20058;-80
2021/08/24 04:22:08;;;;;;;0.98;0.75;;;15.10;81.60;;;;;;4992934;28;20034;-80
2021/08/24 04:24:34;;;;;;;0.60;0.60;;;15.10;81.70;;;;;;4996010;28;20070;-80
2021/08/24 04:27:00;;;;;;;0.63;0.57;;;15.10;81.80;;;;;;5010201;28;20060;-80
2021/08/24 04:29:26;;;;;;;0.85;0.65;;;15.10;81.80;;;;;;4993395;28;20533;-79
2021/08/24 04:31:52;;;;;;;1.17;0.63;;;15.00;81.80;;;;;;4994643;28;20042;-79
2021/08/24 04:34:17;;;;;;;1.27;0.60;;;15.00;81.90;;;;;;4995316;28;20133;-79
2021/08/24 04:36:43;;;;;;;1.17;0.63;;;15.00;82.00;;;;;;5009401;28;20038;-80
2021/08/24 04:39:09;;;;;;;1.15;0.57;;;15.00;82.00;;;;;;5008778;28;20565;-80
2021/08/24 04:41:35;;;;;;;0.70;0.70;;;15.10;82.10;;;;;;5007910;28;20538;-80
2021/08/24 04:44:01;;;;;;;1.00;0.70;;;15.00;82.10;;;;;;4993053;28;20039;-80
2021/08/24 04:46:26;;;;;;;1.77;0.88;;;15.10;82.30;;;;;;4994539;28;20072;-80
2021/08/24 04:48:52;;;;;;;0.50;0.50;;;15.00;82.30;;;;;;4991985;28;20037;-80
2021/08/24 04:51:18;;;;;;;0.70;0.55;;;15.10;82.40;;;;;;4993569;28;20125;-80
2021/08/24 04:53:44;;;;;;;1.20;0.68;;;15.00;82.40;;;;;;4993049;28;20058;-79
2021/08/24 04:56:10;;;;;;;1.20;0.77;;;15.00;82.50;;;;;;4995492;28;20371;-80
2021/08/24 04:58:35;;;;;;;1.17;0.70;;;15.00;82.50;;;;;;4992588;28;20027;-81
2021/08/24 05:01:01;;;;;;;1.10;0.70;;;15.00;82.50;;;;;;5009799;28;20105;-80
2021/08/24 05:03:27;;;;;;;1.50;0.75;;;15.00;82.50;;;;;;4995489;28;20117;-80
2021/08/24 05:05:53;;;;;;;1.33;0.80;;;15.00;82.50;;;;;;4991981;28;20073;-79
2021/08/24 05:08:18;;;;;;;0.70;0.63;;;15.00;82.60;;;;;;4993634;28;20037;-80
2021/08/24 05:10:44;;;;;;;0.77;0.60;;;15.10;82.60;;;;;;4992988;28;20108;-80
2021/08/24 05:13:10;;;;;;;0.68;0.65;;;15.00;82.60;;;;;;5008346;28;20069;-79
2021/08/24 05:15:35;;;;;;;1.38;0.85;;;15.10;82.70;;;;;;4977288;28;20039;-79
2021/08/24 05:18:01;;;;;;;0.93;0.70;;;15.00;82.60;;;;;;4995113;28;20030;-80
2021/08/24 05:20:27;;;;;;;1.05;0.70;;;15.10;82.70;;;;;;4975820;28;20058;-80
2021/08/24 05:22:53;;;;;;;0.90;0.80;;;15.00;82.70;;;;;;5007883;28;20038;-79
2021/08/24 05:25:22;;;;;;;0.90;0.80;;;15.10;82.70;;;;;;4992996;28;20058;-79
2021/08/24 05:27:48;;;;;;;0.57;0.57;;;15.10;82.80;;;;;;4992826;28;20703;-80
2021/08/24 05:30:20;;;;;;;0.90;0.70;;;15.10;82.70;;;;;;4992386;28;20126;-80
2021/08/24 05:32:46;;;;;;;0.85;0.65;;;15.10;82.80;;;;;;4992627;28;20038;-78
2021/08/24 05:35:12;;;;;;;0.90;0.63;;;15.10;82.70;;;;;;4991707;28;20085;-79
2021/08/24 05:37:38;;;;;;;0.85;0.60;;;15.20;82.80;;;;;;5009664;28;20085;-79
2021/08/24 05:40:05;;;;;;;1.77;0.85;;;15.20;82.70;;;;;;4994608;28;20126;-78
2021/08/24 05:42:31;;;;;;;0.98;0.80;;;15.20;82.80;;;;;;4992300;28;20038;-79
2021/08/24 05:44:58;;;;;;;0.88;0.73;;;15.30;82.80;;;;;;4990465;28;20105;-80
2021/08/24 05:47:27;;;;;;;1.58;0.93;;;15.20;82.80;;;;;;5009896;28;20101;-80
2021/08/24 05:49:53;;;;;;;1.35;0.75;;;15.30;82.80;;;;;;4976815;28;20031;-81
2021/08/24 05:52:19;;;;;;;0.95;0.70;;;15.40;82.80;;;;;;4991817;28;20096;-80
2021/08/24 05:54:45;;;;;;;1.42;0.80;;;15.40;82.80;;;;;;5007614;28;20123;-79
2021/08/24 05:57:11;;;;;;;2.05;0.90;;;15.30;82.70;;;;;;4995759;28;20092;-79
2021/08/24 05:59:37;;;;;;;1.58;0.90;;;15.40;82.70;;;;;;5008985;28;20030;-79
2021/08/24 06:02:03;;;;;;;1.08;0.80;;;15.40;82.70;;;;;;4993303;28;20442;-79
2021/08/24 06:04:29;;;;;;;0.80;0.77;;;15.60;82.80;;;;;;4991972;28;20487;-79
2021/08/24 06:06:55;;;;;;;1.45;0.70;;;15.50;82.70;;;;;;5009050;28;20125;-79
2021/08/24 06:09:20;;;;;;;0.75;0.63;;;15.50;82.70;;;;;;4993681;28;20066;-80
2021/08/24 06:11:50;;;;;;;1.05;0.80;;;15.60;82.70;;;;;;5007101;28;20097;-78
2021/08/24 06:14:18;;;;;;;2.47;0.90;;;15.60;82.70;;;;;;4993437;28;20031;-79
2021/08/24 06:16:44;;;;;;;0.63;0.63;;;15.70;82.70;;;;;;4993682;28;20118;-79
2021/08/24 06:19:10;;;;;;;0.70;0.70;;;15.70;82.70;;;;;;4992296;28;20162;-79
2021/08/24 06:21:49;;;;;;;0.90;0.73;;;15.80;82.70;;;;;;4991470;28;20431;-79
2021/08/24 06:24:15;;;;;;;0.82;0.70;;;15.60;82.70;;;;;;4974161;28;20372;-79
2021/08/24 06:26:42;;;;;;;0.70;0.70;;;15.80;82.70;;;;;;4991625;28;20037;-80
2021/08/24 06:29:08;;;;;;;0.73;0.73;;;15.80;82.70;;;;;;4993256;28;20045;-79
2021/08/24 06:31:39;;;;;;;1.65;0.90;;;15.90;82.70;;;;;;5007011;28;20042;-78
2021/08/24 06:34:07;;;;;;;0.88;0.73;;;15.90;82.70;;;;;;5007292;28;20042;-79
2021/08/24 06:36:33;;;;;;;1.27;0.70;;;15.90;82.60;;;;;;4990089;28;20092;-79
2021/08/24 06:38:59;;;;;;;0.82;0.60;;;15.90;82.60;;;;;;4991987;28;20117;-79
2021/08/24 06:41:25;;;;;;;1.92;0.88;;;16.00;82.70;;;;;;4992881;28;20513;-80
2021/08/24 06:43:51;;;;;;;1.00;0.70;;;16.00;82.70;;;;;;4993004;28;20549;-80
2021/08/24 06:46:16;;;;;;;1.05;0.80;;;16.00;82.70;;;;;;4989747;28;20042;-79
2021/08/24 06:48:43;;;;;;;2.00;0.80;;;16.00;82.70;;;;;;4991543;28;20376;-79
2021/08/24 06:51:09;;;;;;;1.48;0.90;;;16.10;82.80;;;;;;4992877;28;20038;-79
2021/08/24 06:53:37;;;;;;;1.00;0.70;;;16.10;82.80;;;;;;4974807;28;20042;-80
2021/08/24 06:56:03;;;;;;;0.68;0.60;;;16.10;82.80;;;;;;5006344;28;20486;-80
2021/08/24 06:58:29;;;;;;;1.02;0.90;;;16.20;82.80;;;;;;4990391;28;20042;-79
2021/08/24 07:00:55;;;;;;;1.55;0.90;;;16.20;82.80;;;;;;4992664;28;20057;-79
2021/08/24 07:03:21;;;;;;;1.33;0.80;;;16.20;82.70;;;;;;4991208;28;20046;-79
2021/08/24 07:05:49;;;;;;;2.00;0.85;;;16.30;82.80;;;;;;4992534;28;20034;-80
2021/08/24 07:08:16;;;;;;;1.45;0.80;;;16.30;82.80;;;;;;4992818;28;20049;-79
2021/08/24 07:10:41;;;;;;;0.77;0.77;;;16.30;82.80;;;;;;4990498;28;20039;-79
2021/08/24 07:13:07;;;;;;;1.10;0.90;;;16.40;82.80;;;;;;4991076;28;20112;-80
2021/08/24 07:15:36;;;;;;;0.80;0.80;;;16.50;82.80;;;;;;4992769;28;20077;-79
2021/08/24 07:18:03;;;;;;;1.42;0.77;;;16.50;82.70;;;;;;4990128;28;20118;-79
2021/08/24 07:20:29;;;;;;;1.67;1.00;;;16.50;82.70;;;;;;4992529;28;20027;-79
2021/08/24 07:22:58;;;;;;;1.40;0.90;;;16.60;82.70;;;;;;4991030;28;20097;-79
2021/08/24 07:25:25;;;;;;;1.08;0.80;;;16.60;82.70;;;;;;5007741;28;20085;-80
2021/08/24 07:27:52;;;;;;;0.95;0.85;;;16.60;82.70;;;;;;4990884;28;20064;-79
2021/08/24 07:30:18;;;;;;;2.45;1.08;;;16.60;82.60;;;;;;4993140;28;20438;-79
2021/08/24 07:32:44;;;;;;;1.45;0.80;;;16.60;82.50;;;;;;5005772;28;20078;-80
2021/08/24 07:35:11;;;;;;;1.00;0.90;;;16.70;82.60;;;;;;4990755;28;20121;-79
2021/08/24 07:37:37;;;;;;;0.93;0.90;;;16.70;82.60;;;;;;4990334;28;20034;-79
2021/08/24 07:40:06;;;;;;;1.00;0.90;;;16.70;82.50;;;;;;4989692;28;20050;-79
2021/08/24 07:42:31;;;;;;;2.35;0.82;;;16.80;82.50;;;;;;4992557;28;20047;-79
2021/08/24 07:44:57;;;;;;;1.70;1.00;;;16.80;82.50;;;;;;4992281;28;20117;-79
2021/08/24 07:47:23;;;;;;;1.27;1.00;;;16.80;82.40;;;;;;4990185;28;20050;-79
2021/08/24 07:49:51;;;;;;;2.38;0.82;;;16.90;82.40;;;;;;4989592;28;20045;-80
2021/08/24 07:52:16;;;;;;;1.20;0.75;;;16.90;82.30;;;;;;4991150;28;20490;-79
2021/08/24 07:54:42;;;;;;;2.20;1.20;;;16.90;82.20;;;;;;4991132;28;20041;-79
2021/08/24 07:57:08;;;;;;;0.80;0.80;;;17.10;82.30;;;;;;4991766;28;20022;-79
2021/08/24 07:59:34;;;;;;;1.25;0.90;;;17.20;82.20;;;;;;4991003;28;20078;-79
2021/08/24 08:02:00;;;;;;;0.75;0.65;;;17.20;82.00;;;;;;4991275;28;20034;-79
2021/08/24 08:04:27;;;;;;;1.40;1.00;;;17.30;81.90;;;;;;4991618;28;20129;-79
2021/08/24 08:06:53;;;;;;;1.00;0.90;;;17.40;81.70;;;;;;4991170;28;20031;-78
2021/08/24 08:09:20;;;;;;;0.77;0.77;;;17.50;81.40;;;;;;4994052;28;20375;-78
2021/08/24 08:11:49;;;;;;;0.90;0.80;;;17.60;81.30;;;;;;4994054;28;20039;-79
2021/08/24 08:14:14;;;;;;;1.05;0.88;;;17.80;81.20;;;;;;4994048;28;20043;-79
2021/08/24 08:16:40;;;;;;;1.05;0.80;;;17.90;81.00;;;;;;4993802;28;20042;-79
2021/08/24 08:19:07;;;;;;;0.80;0.70;;;18.10;80.70;;;;;;4993941;28;20073;-79
2021/08/24 08:21:35;;;;;;;1.00;0.73;;;18.30;80.50;;;;;;4992913;28;20035;-79
2021/08/24 08:24:01;;;;;;;0.70;0.60;;;18.50;80.20;;;;;;4994896;28;20066;-79
2021/08/24 08:26:28;;;;;;;0.65;0.65;;;18.70;79.80;;;;;;5008268;28;20209;-79
2021/08/24 08:28:55;;;;;;;0.73;0.73;;;18.90;79.50;;;;;;4994964;28;20038;-78
2021/08/24 08:31:22;;;;;;;0.57;0.57;;;19.10;79.20;;;;;;5008539;28;20144;-79
2021/08/24 08:33:49;;;;;;;0.90;0.77;;;19.20;79.00;;;;;;4991628;28;20030;-79
2021/08/24 08:36:14;;;;;;;1.80;0.70;;;19.40;78.80;;;;;;4995292;28;20493;-79
2021/08/24 08:38:40;;;;;;;1.15;0.80;;;19.50;78.60;;;;;;5009483;28;20030;-79
2021/08/24 08:41:21;;;;;;;1.40;0.80;;;19.70;78.40;;;;;;4992551;28;20038;-78
2021/08/24 08:43:58;;;;;;;1.38;0.73;;;19.80;78.20;;;;;;4995588;28;20562;-79
2021/08/24 08:46:49;;;;;;;0.93;0.70;;;19.90;78.20;;;;;;4995364;28;20037;-79
2021/08/24 08:49:48;;;;;;;0.80;0.60;;;20.00;78.10;;;;;;4995480;28;20045;-79
2021/08/24 08:52:45;;;;;;;0.50;0.50;;;20.10;78.00;;;;;;4994330;28;20440;-79
2021/08/24 08:55:23;;;;;;;0.68;0.68;;;20.30;77.90;;;;;;4977612;28;20398;-79
2021/08/24 08:58:02;;;;;;;0.95;0.80;;;20.30;77.70;;;;;;4993488;28;20081;-80
2021/08/24 09:00:42;;;;;;;0.95;0.77;;;20.50;77.60;;;;;;4992606;28;20479;-79
2021/08/24 09:03:17;;;;;;;1.00;0.77;;;20.50;77.40;;;;;;4995105;28;20494;-79
2021/08/24 09:05:44;;;;;;;0.80;0.57;;;20.60;77.40;;;;;;4993363;28;20042;-79
2021/08/24 09:08:10;;;;;;;0.57;0.55;;;20.70;77.50;;;;;;4994702;28;20042;-78
2021/08/24 09:10:43;;;;;;;1.88;0.63;;;20.80;77.40;;;;;;4995094;28;20034;-78
2021/08/24 09:13:21;;;;;;;1.42;0.80;;;20.80;77.30;;;;;;4994589;28;20035;-78
2021/08/24 09:16:08;;;;;;;1.23;0.75;;;21.00;77.20;;;;;;4992813;28;20042;-79
2021/08/24 09:18:49;;;;;;;1.23;0.70;;;21.00;77.10;;;;;;4995697;28;20034;-78
2021/08/24 09:21:35;;;;;;;0.63;0.60;;;21.10;76.90;;;;;;4993102;28;20027;-79
2021/08/24 09:24:15;;;;;;;1.05;0.60;;;21.30;76.90;;;;;;4992686;28;20041;-78
2021/08/24 09:27:09;;;;;;;1.33;0.80;;;21.30;76.70;;;;;;4993314;28;20034;-78
2021/08/24 09:29:44;;;;;;;0.70;0.60;;;21.30;76.50;;;;;;4993555;28;20031;-78
2021/08/24 09:32:12;;;;;;;1.05;0.80;;;21.30;76.80;;;;;;4993255;28;20050;-78
2021/08/24 09:34:44;;;;;;;0.90;0.80;;;21.40;76.90;;;;;;4993300;28;20474;-79
2021/08/24 09:37:16;;;;;;;0.68;0.60;;;21.30;76.60;;;;;;4994317;28;20042;-79
2021/08/24 09:40:00;;;;;;;1.00;0.65;;;21.20;76.80;;;;;;4993210;28;20031;-79
2021/08/24 09:42:31;;;;;;;0.60;0.60;;;21.20;77.30;;;;;;4991534;28;20065;-79
2021/08/24 09:45:00;;;;;;;0.98;0.70;;;21.30;77.20;;;;;;4993330;28;20038;-79
2021/08/24 09:47:27;;;;;;;2.15;0.47;;;21.30;77.20;;;;;;4993555;28;20034;-80
2021/08/24 09:50:01;;;;;;;1.05;0.82;;;21.30;76.90;;;;;;4992398;28;20042;-79
2021/08/24 09:52:30;;;;;;;0.93;0.75;;;21.20;77.00;;;;;;4994055;28;20043;-79
2021/08/24 09:55:00;;;;;;;0.88;0.75;;;21.10;77.30;;;;;;4990541;28;20030;-79
2021/08/24 09:57:37;;;;;;;0.80;0.80;;;21.20;77.30;;;;;;4988711;28;20038;-79
2021/08/24 10:00:21;;;;;;;1.38;0.90;;;21.30;76.90;;;;;;4994286;28;20761;-79
2021/08/24 10:02:50;;;;;;;1.00;0.70;;;21.40;76.80;;;;;;4994296;28;20034;-80
2021/08/24 10:05:37;;;;;;;0.70;0.70;;;21.50;76.60;;;;;;4991119;28;20042;-79
2021/08/24 10:08:39;;;;;;;0.88;0.80;;;21.60;76.70;;;;;;4995004;28;20487;-79
2021/08/24 10:11:11;;;;;;;1.10;0.80;;;21.60;76.30;;;;;;5008378;28;20470;-79
2021/08/24 10:13:41;;;;;;;0.85;0.80;;;21.70;76.30;;;;;;4989030;28;20058;-79
2021/08/24 10:16:26;;;;;;;1.58;0.88;;;21.70;76.10;;;;;;4992269;28;20030;-80
2021/08/24 10:19:13;;;;;;;1.00;0.90;;;21.80;75.70;;;;;;4992061;28;20058;-80
2021/08/24 10:21:44;;;;;;;1.48;0.70;;;21.90;75.50;;;;;;4992808;28;20109;-79
2021/08/24 10:24:14;;;;;;;0.88;0.77;;;21.80;75.50;;;;;;4991819;28;20186;-79
2021/08/24 10:26:41;;;;;;;0.80;0.80;;;21.70;75.60;;;;;;4991853;28;20120;-79
2021/08/24 10:29:12;;;;;;;1.60;0.90;;;21.50;75.70;;;;;;4991635;28;20042;-79
2021/08/24 10:31:41;;;;;;;0.75;0.73;;;21.60;75.80;;;;;;5007221;28;20042;-79
2021/08/24 10:34:23;;;;;;;1.60;0.90;;;21.50;76.00;;;;;;4991668;28;20034;-80
2021/08/24 10:36:50;;;;;;;0.68;0.68;;;21.40;76.00;;;;;;4991860;28;20038;-79
2021/08/24 10:39:29;;;;;;;0.75;0.68;;;21.50;75.90;;;;;;4991783;28;20038;-79
2021/08/24 10:42:08;;;;;;;0.70;0.70;;;21.60;75.40;;;;;;4991841;28;20868;-79
2021/08/24 10:45:02;;;;;;;0.88;0.80;;;21.70;75.00;;;;;;4992877;28;20034;-79
2021/08/24 10:47:32;;;;;;;0.50;0.50;;;21.70;75.00;;;;;;4992858;28;20398;-80
2021/08/24 10:50:00;;;;;;;1.40;0.90;;;21.70;74.60;;;;;;4991245;28;20498;-80
2021/08/24 10:52:44;;;;;;;0.88;0.80;;;21.70;74.60;;;;;;5007051;28;20037;-80
2021/08/24 10:55:16;;;;;;;1.50;0.80;;;21.60;74.60;;;;;;4992635;28;20181;-80
2021/08/24 10:58:17;;;;;;;0.60;0.60;;;21.50;74.60;;;;;;5007260;28;20046;-81
2021/08/24 11:01:07;;;;;;;0.85;0.80;;;21.50;74.50;;;;;;5007360;28;20046;-80
2021/08/24 11:04:07;;;;;;;1.03;0.70;;;21.60;74.40;;;;;;4992654;28;20066;-80
2021/08/24 11:06:49;;;;;;;0.65;0.65;;;21.60;74.30;;;;;;4993973;28;20034;-80
2021/08/24 11:09:29;;;;;;;0.73;0.60;;;21.70;74.20;;;;;;4974579;28;20034;-80
2021/08/24 11:12:21;;;;;;;0.65;0.65;;;21.60;73.90;;;;;;4992896;28;20088;-80
2021/08/24 11:15:14;;;;;;;0.95;0.70;;;21.60;73.70;;;;;;5007161;28;20141;-80
2021/08/24 11:17:58;;;;;;;0.73;0.70;;;21.70;73.60;;;;;;4992529;28;20035;-81
2021/08/24 11:20:40;;;;;;;0.60;0.60;;;21.70;73.50;;;;;;4991151;28;20058;-80
2021/08/24 11:23:35;;;;;;;1.10;0.70;;;21.60;73.30;;;;;;4992402;28;20034;-80
2021/08/24 11:26:12;;;;;;;1.05;0.68;;;21.70;73.20;;;;;;4992580;28;20043;-80
2021/08/24 11:28:53;;;;;;;0.40;0.40;;;21.80;72.90;;;;;;4989340;28;20045;-80
2021/08/24 11:31:28;;;;;;;0.93;0.60;;;21.80;72.60;;;;;;4990778;28;20469;-80
2021/08/24 11:34:04;;;;;;;1.13;0.73;;;22.00;72.40;;;;;;4992497;28;20064;-80
2021/08/24 11:36:39;;;;;;;1.13;0.85;;;22.00;72.10;;;;;;4992745;28;20038;-80
2021/08/24 11:39:12;;;;;;;0.93;0.70;;;22.10;72.00;;;;;;4989760;28;20058;-81
2021/08/24 11:41:42;;;;;;;0.60;0.60;;;22.10;71.50;;;;;;4991260;28;20471;-80
2021/08/24 11:44:20;;;;;;;0.85;0.47;;;22.00;71.20;;;;;;4996257;28;20468;-80
2021/08/24 11:46:54;;;;;;;0.47;0.47;;;22.10;71.00;;;;;;4992505;28;20042;-80
2021/08/24 11:49:27;;;;;;;1.00;0.70;;;22.20;71.00;;;;;;4994679;28;20034;-80
2021/08/24 11:52:29;;;;;;;0.55;0.52;;;22.10;70.70;;;;;;5009007;28;20050;-81
2021/08/24 11:55:15;;;;;;;0.60;0.60;;;22.30;70.60;;;;;;4995434;28;20041;-80
2021/08/24 11:57:51;;;;;;;1.23;0.80;;;22.40;70.50;;;;;;4992901;28;20046;-80
2021/08/24 12:00:17;;;;;;;1.17;0.70;;;22.40;70.30;;;;;;4993727;28;20042;-81
2021/08/24 12:02:47;;;;;;;1.23;0.70;;;22.40;70.10;;;;;;4992788;28;20089;-80
2021/08/24 12:05:21;;;;;;;0.60;0.60;;;22.40;69.70;;;;;;4992871;28;20041;-80
2021/08/24 12:08:00;;;;;;;0.73;0.60;;;22.50;69.50;;;;;;4995519;28;20057;-81
2021/08/24 12:10:31;;;;;;;0.55;0.47;;;22.60;69.30;;;;;;4993922;28;20034;-81
2021/08/24 12:13:01;;;;;;;0.82;0.47;;;22.50;69.00;;;;;;4994980;28;20042;-81
2021/08/24 12:15:45;;;;;;;1.38;0.70;;;22.50;68.90;;;;;;4992225;28;20105;-80
2021/08/24 12:18:26;;;;;;;0.73;0.70;;;22.50;68.80;;;;;;4991911;28;20093;-79
2021/08/24 12:20:59;;;;;;;0.93;0.68;;;22.50;68.90;;;;;;4993337;28;20486;-78
2021/08/24 12:23:40;;;;;;;0.73;0.50;;;22.50;68.70;;;;;;4989716;28;20070;-80
2021/08/24 12:26:28;;;;;;;0.82;0.73;;;22.40;68.50;;;;;;4992080;28;20077;-80
2021/08/24 12:29:01;;;;;;;0.88;0.70;;;22.40;68.40;;;;;;5008606;28;20045;-80
2021/08/24 12:31:46;;;;;;;0.88;0.75;;;22.40;68.40;;;;;;4992593;28;20066;-81
2021/08/24 12:34:43;;;;;;;1.08;0.70;;;22.30;68.30;;;;;;4994892;28;20050;-81
2021/08/24 12:37:44;;;;;;;1.15;0.80;;;22.30;68.30;;;;;;5008211;28;20038;-80
2021/08/24 12:40:44;;;;;;;1.02;0.63;;;22.40;68.10;;;;;;4994505;28;20038;-80
2021/08/24 12:43:44;;;;;;;0.73;0.60;;;22.50;67.80;;;;;;4998218;28;20049;-80
2021/08/24 12:46:26;;;;;;;1.55;0.88;;;22.60;67.50;;;;;;4994766;28;20038;-80
2021/08/24 12:49:28;;;;;;;1.23;0.77;;;22.60;67.40;;;;;;5009102;28;20434;-81
2021/08/24 12:52:06;;;;;;;0.60;0.60;;;22.60;67.30;;;;;;4994309;28;20042;-81
2021/08/24 12:54:46;;;;;;;0.73;0.60;;;22.60;67.00;;;;;;4994370;28;20047;-81
2021/08/24 12:57:14;;;;;;;;;;;22.60;66.90;;;;;;4995092;28;20038;-81
2021/08/24 12:59:43;;;;;;;1.30;0.82;;;22.60;67.00;;;;;;4993139;28;20354;-80
2021/08/24 13:02:35;;;;;;;1.30;0.82;;;22.50;67.00;;;;;;4992776;28;20088;-81
2021/08/24 13:05:23;;;;;;;1.17;0.90;;;22.60;67.00;;;;;;5008182;28;20540;-82
2021/08/24 13:08:11;;;;;;;1.20;0.90;;;22.70;66.80;;;;;;4992103;28;20034;-81
2021/08/24 13:10:46;;;;;;;2.17;0.65;;;22.70;66.60;;;;;;5009876;28;20042;-81
2021/08/24 13:13:47;;;;;;;1.23;0.82;;;22.70;66.40;;;;;;4993418;28;20046;-81
2021/08/24 13:16:15;;;;;;;0.80;0.70;;;22.60;66.40;;;;;;4994333;28;20125;-81